Time;durP1;ratioP1;P1;durP2;ratioP2;P2;SDS_P1;SDS_P2;PMS_P1;PMS_P2;Temp;Humidity;BMP_temperature;BMP_pressure;BME280_temperature;BME280_humidity;BME280_pressure;Samples;Min_cycle;Max_cycle;Signal;HPM_P1;HPM_P2
2022/05/20 00:00:24;;;;;;;4.45;2.10;;;;;;;7.25;91.55;94179.59;5049958;28;20049;-74
2022/05/20 00:02:51;;;;;;;3.40;1.90;;;;;;;7.18;92.98;94188.91;5050140;28;20080;-74
2022/05/20 00:05:18;;;;;;;3.65;2.05;;;;;;;7.17;92.94;94177.88;5050112;28;20428;-74
2022/05/20 00:07:45;;;;;;;4.93;2.20;;;;;;;7.13;93.91;94173.25;5049870;28;20045;-74
2022/05/20 00:10:15;;;;;;;3.92;2.17;;;;;;;7.08;94.87;94179.66;5049509;28;20044;-74
2022/05/20 00:12:42;;;;;;;4.28;2.15;;;;;;;7.12;96.29;94180.13;5049181;28;20106;-73
2022/05/20 00:15:12;;;;;;;5.18;2.00;;;;;;;7.11;95.47;94183.63;5049852;28;20075;-74
2022/05/20 00:17:40;;;;;;;8.73;2.42;;;;;;;6.98;96.41;94171.38;5049947;28;20056;-74
2022/05/20 00:20:09;;;;;;;4.28;1.95;;;;;;;7.01;97.01;94177.91;5049739;28;20048;-74
2022/05/20 00:22:36;;;;;;;4.20;2.25;;;;;;;7.02;96.57;94177.75;5049752;28;20056;-74
2022/05/20 00:27:47;;;;;;;3.85;2.08;;;;;;;6.96;97.32;94183.50;5049516;28;20052;-74
2022/05/20 00:30:14;;;;;;;3.25;2.03;;;;;;;6.93;97.57;94187.19;5048993;28;20057;-74
2022/05/20 00:32:43;;;;;;;4.95;2.13;;;;;;;6.89;97.75;94195.34;5049747;28;20044;-74
2022/05/20 00:35:11;;;;;;;4.25;2.03;;;;;;;6.84;98.61;94195.81;5049867;28;20049;-74
2022/05/20 00:37:38;;;;;;;3.85;1.90;;;;;;;6.79;97.89;94198.88;5049700;28;20053;-73
2022/05/20 00:40:06;;;;;;;3.92;1.85;;;;;;;6.75;98.55;94194.25;5049532;28;20060;-73
2022/05/20 00:42:34;;;;;;;4.60;2.08;;;;;;;6.81;98.26;94191.81;5049333;28;20052;-73
2022/05/20 00:45:01;;;;;;;6.20;2.45;;;;;;;6.78;97.55;94202.38;5049279;28;20055;-74
2022/05/20 00:47:28;;;;;;;5.80;2.25;;;;;;;6.68;97.60;94186.44;5049198;28;20063;-74
2022/05/20 00:49:59;;;;;;;3.50;2.08;;;;;;;6.69;98.80;94193.13;5048744;28;20053;-74
2022/05/20 00:52:30;;;;;;;2.40;1.42;;;;;;;6.63;97.30;94183.56;5049199;28;20049;-74
2022/05/20 00:55:01;;;;;;;3.45;1.85;;;;;;;6.74;96.72;94197.75;5049175;28;20045;-74
2022/05/20 00:57:31;;;;;;;3.35;1.80;;;;;;;6.61;96.50;94172.72;5049014;28;20045;-74
2022/05/20 01:00:04;;;;;;;4.03;1.70;;;;;;;6.77;95.69;94199.97;5046823;28;20045;-73
2022/05/20 01:02:34;;;;;;;3.75;2.10;;;;;;;6.71;95.78;94196.31;5048330;28;20061;-74
2022/05/20 01:05:04;;;;;;;5.32;2.00;;;;;;;6.72;96.06;94197.94;5048645;28;20470;-74
2022/05/20 01:07:37;;;;;;;3.53;2.00;;;;;;;6.66;96.33;94194.25;5049066;28;20500;-73
2022/05/20 01:10:04;;;;;;;4.20;2.13;;;;;;;6.61;96.43;94204.13;5048308;28;20060;-73
2022/05/20 01:12:32;;;;;;;6.65;2.50;;;;;;;6.52;96.41;94203.34;5049199;28;20056;-73
2022/05/20 01:14:58;;;;;;;3.30;2.13;;;;;;;6.45;96.53;94181.97;5049273;28;20049;-73
2022/05/20 01:17:25;;;;;;;3.30;2.05;;;;;;;6.47;96.53;94192.03;5048873;28;20045;-73
2022/05/20 01:19:54;;;;;;;3.65;2.15;;;;;;;6.37;96.44;94187.88;5045864;28;20046;-73
2022/05/20 01:22:31;;;;;;;7.15;2.72;;;;;;;6.34;97.85;94182.28;5047882;28;20052;-73
2022/05/20 01:24:59;;;;;;;4.07;2.20;;;;;;;6.32;98.70;94186.75;5050547;28;20078;-73
2022/05/20 01:27:26;;;;;;;4.18;2.17;;;;;;;6.24;98.78;94183.22;5053032;28;20056;-73
2022/05/20 01:29:53;;;;;;;3.55;2.13;;;;;;;6.33;98.71;94175.56;5052536;28;20496;-73
2022/05/20 01:32:20;;;;;;;3.08;2.00;;;;;;;6.36;99.65;94181.19;5038479;28;20050;-73
2022/05/20 01:34:47;;;;;;;3.95;1.63;;;;;;;6.35;100.00;94181.34;5031150;28;20048;-73
2022/05/20 01:37:14;;;;;;;3.75;2.13;;;;;;;6.43;100.00;94185.63;5032375;28;20045;-73
2022/05/20 01:39:42;;;;;;;3.47;2.13;;;;;;;6.41;100.00;94185.78;5049038;28;20068;-73
2022/05/20 01:42:16;;;;;;;2.95;1.85;;;;;;;6.43;100.00;94181.31;5052844;28;20495;-74
2022/05/20 01:44:50;;;;;;;3.60;2.10;;;;;;;6.44;100.00;94179.56;5052630;28;20041;-74
2022/05/20 01:47:24;;;;;;;4.75;1.98;;;;;;;6.39;100.00;94165.53;5052352;28;20048;-73
2022/05/20 01:49:56;;;;;;;5.07;2.28;;;;;;;6.46;100.00;94181.00;5052436;28;20522;-73
2022/05/20 01:52:29;;;;;;;4.75;2.00;;;;;;;6.43;99.97;94177.97;5051657;28;20049;-73
2022/05/20 01:55:04;;;;;;;3.42;1.92;;;;;;;6.41;98.55;94173.03;5052305;28;20052;-73
2022/05/20 01:57:37;;;;;;;3.45;1.92;;;;;;;6.35;99.93;94171.13;5052730;28;20049;-73
2022/05/20 02:00:08;;;;;;;5.10;2.55;;;;;;;6.36;99.22;94172.72;5049547;28;20045;-74
2022/05/20 02:02:40;;;;;;;3.30;1.90;;;;;;;6.32;97.86;94179.88;5042692;28;20053;-73
2022/05/20 02:05:14;;;;;;;3.33;1.65;;;;;;;6.23;99.38;94180.84;5033008;28;20049;-74
2022/05/20 02:07:47;;;;;;;4.85;1.90;;;;;;;6.15;99.76;94168.88;5033403;28;20048;-73
2022/05/20 02:10:19;;;;;;;3.83;1.90;;;;;;;6.11;99.84;94180.38;5031804;28;20045;-73
2022/05/20 02:12:51;;;;;;;5.05;2.00;;;;;;;6.03;100.00;94175.22;5031423;28;20049;-73
2022/05/20 02:15:22;;;;;;;3.95;2.30;;;;;;;5.99;100.00;94180.63;5046055;28;20052;-73
2022/05/20 02:17:54;;;;;;;3.13;2.00;;;;;;;5.92;100.00;94183.97;5051435;28;20389;-72
2022/05/20 02:20:26;;;;;;;4.22;2.40;;;;;;;5.86;100.00;94181.09;5051701;28;20051;-73
2022/05/20 02:22:56;;;;;;;5.97;2.65;;;;;;;5.72;100.00;94172.28;5051649;28;20037;-72
2022/05/20 02:25:29;;;;;;;5.82;2.28;;;;;;;5.72;100.00;94186.78;5051159;28;20045;-72
2022/05/20 02:28:10;;;;;;;4.47;2.22;;;;;;;5.64;100.00;94186.75;5051477;28;20045;-73
2022/05/20 02:30:37;;;;;;;3.28;2.25;;;;;;;5.59;100.00;94193.09;5051181;28;20041;-73
2022/05/20 02:33:08;;;;;;;3.67;2.58;;;;;;;5.58;100.00;94194.06;5051277;28;20041;-73
2022/05/20 02:35:36;;;;;;;4.57;2.28;;;;;;;5.58;100.00;94188.16;5050891;28;20041;-73
2022/05/20 02:38:10;;;;;;;3.47;2.00;;;;;;;5.59;100.00;94193.09;5051259;28;20045;-73
2022/05/20 02:40:38;;;;;;;4.20;2.17;;;;;;;5.64;100.00;94192.63;5051156;28;20052;-73
2022/05/20 02:43:06;;;;;;;3.35;2.72;;;;;;;5.45;100.00;94155.47;5051376;28;20045;-73
2022/05/20 02:45:33;;;;;;;5.05;2.15;;;;;;;5.60;100.00;94187.06;5051119;28;20371;-73
2022/05/20 02:48:00;;;;;;;3.25;1.80;;;;;;;5.56;100.00;94178.13;5051171;28;20044;-73
2022/05/20 02:50:27;;;;;;;5.80;2.20;;;;;;;5.62;100.00;94186.91;5051364;28;20053;-73
2022/05/20 02:52:54;;;;;;;4.95;1.90;;;;;;;5.59;100.00;94179.56;5051107;28;20470;-73
2022/05/20 02:55:21;;;;;;;4.53;1.80;;;;;;;5.68;100.00;94186.28;5050722;28;20488;-73
2022/05/20 02:57:48;;;;;;;4.82;2.10;;;;;;;5.70;100.00;94183.59;5050877;28;20124;-73
2022/05/20 03:05:52;;;;;;;3.17;2.17;;;;;;;5.70;100.00;94175.94;5050227;28;20049;-73
2022/05/20 03:08:19;;;;;;;3.55;1.83;;;;;;;5.56;100.00;94178.13;5050594;28;20084;-73
2022/05/20 03:10:46;;;;;;;3.80;1.60;;;;;;;5.54;100.00;94187.69;5050686;28;20413;-73
2022/05/20 03:13:13;;;;;;;3.97;2.15;;;;;;;5.38;100.00;94173.13;5050961;28;20079;-73
2022/05/20 03:15:42;;;;;;;3.85;2.10;;;;;;;5.30;100.00;94173.09;5050243;28;20503;-73
2022/05/20 03:18:10;;;;;;;6.68;2.28;;;;;;;5.35;100.00;94186.97;5050558;28;20075;-73
2022/05/20 03:20:38;;;;;;;4.90;2.03;;;;;;;5.29;100.00;94187.59;5050257;28;20045;-73
2022/05/20 03:23:05;;;;;;;3.75;2.30;;;;;;;5.31;100.00;94180.59;5050011;28;20041;-73
2022/05/20 03:25:33;;;;;;;3.28;1.88;;;;;;;5.29;100.00;94179.13;5050318;28;20068;-73
2022/05/20 03:28:01;;;;;;;3.00;1.70;;;;;;;5.34;100.00;94185.34;5050158;28;20049;-73
2022/05/20 03:30:27;;;;;;;8.07;3.33;;;;;;;5.36;100.00;94180.13;5049847;28;20045;-73
2022/05/20 03:32:56;;;;;;;4.57;2.17;;;;;;;5.42;100.00;94179.50;5050179;28;20400;-73
2022/05/20 03:35:23;;;;;;;4.10;1.92;;;;;;;5.50;100.00;94185.59;5050241;28;20052;-74
2022/05/20 03:37:49;;;;;;;4.45;2.30;;;;;;;5.55;100.00;94188.50;5050216;28;20048;-73
2022/05/20 03:40:16;;;;;;;4.45;2.53;;;;;;;5.57;100.00;94194.22;5050127;28;20408;-73
2022/05/20 03:42:43;;;;;;;7.90;3.10;;;;;;;5.60;100.00;94189.59;5049778;28;20048;-73
2022/05/20 03:45:11;;;;;;;5.03;2.65;;;;;;;5.65;100.00;94199.31;5050353;28;20041;-73
2022/05/20 03:47:38;;;;;;;4.30;2.08;;;;;;;5.73;100.00;94196.00;5048828;28;20045;-73
2022/05/20 03:50:06;;;;;;;6.63;3.20;;;;;;;5.76;100.00;94200.81;5049949;28;20044;-73
2022/05/20 03:52:33;;;;;;;3.33;2.13;;;;;;;5.81;100.00;94205.44;5049564;28;20056;-73
2022/05/20 03:55:00;;;;;;;5.68;3.13;;;;;;;5.87;100.00;94208.16;5049933;28;20045;-73
2022/05/20 03:57:27;;;;;;;4.78;2.53;;;;;;;5.96;100.00;94208.19;5049455;28;20047;-73
2022/05/20 03:59:54;;;;;;;6.32;2.72;;;;;;;6.05;100.00;94209.84;5049679;28;20044;-73
2022/05/20 04:02:20;;;;;;;5.90;3.28;;;;;;;6.06;100.00;94203.00;5049779;28;20389;-73
2022/05/20 04:04:50;;;;;;;4.03;2.78;;;;;;;6.16;100.00;94208.75;5049506;28;20048;-73
2022/05/20 04:07:21;;;;;;;6.13;2.65;;;;;;;6.15;100.00;94212.22;5049151;28;20052;-73
2022/05/20 04:09:49;;;;;;;7.85;3.08;;;;;;;6.25;100.00;94201.91;5049287;28;20045;-73
2022/05/20 04:12:22;;;;;;;5.22;2.97;;;;;;;6.22;100.00;94203.00;5049476;28;20045;-73
2022/05/20 04:14:49;;;;;;;6.05;3.40;;;;;;;6.32;100.00;94212.25;5049442;28;20424;-73
2022/05/20 04:17:16;;;;;;;7.60;3.17;;;;;;;6.38;100.00;94216.72;5049036;28;20048;-73
2022/05/20 04:19:43;;;;;;;8.98;3.92;;;;;;;6.43;100.00;94209.38;5049304;28;20056;-73
2022/05/20 04:22:12;;;;;;;14.98;4.55;;;;;;;6.40;100.00;94196.97;5049417;28;20460;-73
2022/05/20 04:24:40;;;;;;;7.88;4.13;;;;;;;6.46;100.00;94201.44;5049357;28;20052;-73
2022/05/20 04:27:07;;;;;;;7.22;3.60;;;;;;;6.66;100.00;94218.97;5048874;28;20507;-73
2022/05/20 04:29:34;;;;;;;6.35;2.80;;;;;;;6.68;100.00;94222.19;5048999;28;20052;-73
2022/05/20 04:32:01;;;;;;;5.15;2.72;;;;;;;6.83;100.00;94224.88;5049096;28;20562;-73
2022/05/20 04:34:28;;;;;;;5.78;3.33;;;;;;;6.98;99.48;94216.56;5049158;28;20052;-73
2022/05/20 04:36:55;;;;;;;8.93;4.07;;;;;;;7.12;100.00;94218.44;5049103;28;20412;-73
2022/05/20 04:39:22;;;;;;;8.60;4.20;;;;;;;7.12;99.05;94194.66;5048906;28;20049;-73
2022/05/20 04:47:24;;;;;;;7.72;4.10;;;;;;;7.70;95.87;94215.72;5048796;28;20399;-73
2022/05/20 04:49:51;;;;;;;6.07;3.10;;;;;;;7.92;93.60;94226.16;5048600;28;20048;-73
2022/05/20 04:52:18;;;;;;;4.18;2.80;;;;;;;7.79;96.28;94218.22;5048943;28;20041;-73
2022/05/20 04:54:50;;;;;;;7.22;3.42;;;;;;;7.85;97.50;94227.78;5048516;28;20519;-73
2022/05/20 04:57:28;;;;;;;15.38;8.10;;;;;;;7.78;99.28;94232.75;5048826;28;20045;-73
2022/05/20 04:59:59;;;;;;;29.60;13.48;;;;;;;7.82;97.19;94225.59;5048598;28;20056;-73
2022/05/20 05:02:27;;;;;;;34.28;15.45;;;;;;;8.00;97.43;94233.81;5048539;28;20408;-73
2022/05/20 05:04:54;;;;;;;25.48;11.35;;;;;;;8.13;95.90;94227.31;5048855;28;20053;-73
2022/05/20 05:07:21;;;;;;;26.85;12.38;;;;;;;8.32;94.49;94238.13;5048668;28;20053;-73
2022/05/20 05:09:48;;;;;;;26.83;11.43;;;;;;;8.59;91.01;94243.69;5048366;28;20048;-73
2022/05/20 05:12:16;;;;;;;31.00;11.70;;;;;;;8.76;90.75;94240.06;5048793;28;20048;-73
2022/05/20 05:14:46;;;;;;;24.40;11.35;;;;;;;8.96;88.94;94244.69;5048630;28;20052;-73
2022/05/20 05:17:16;;;;;;;26.58;12.32;;;;;;;9.12;89.93;94245.53;5048733;28;21769;-73
2022/05/20 05:19:44;;;;;;;24.70;9.75;;;;;;;9.13;88.77;94242.78;5048385;28;20041;-73
2022/05/20 05:22:12;;;;;;;24.83;10.48;;;;;;;9.33;88.21;94242.28;5048401;28;20041;-73
2022/05/20 05:24:39;;;;;;;24.75;10.10;;;;;;;9.35;87.26;94243.69;5048635;28;20492;-73
2022/05/20 05:27:07;;;;;;;20.85;9.82;;;;;;;9.47;88.33;94241.50;5048118;28;20048;-73
2022/05/20 05:29:39;;;;;;;15.57;7.03;;;;;;;9.61;81.72;94242.47;5048484;28;20048;-73
2022/05/20 05:32:08;;;;;;;12.55;5.07;;;;;;;9.80;75.70;94242.06;5046573;28;20048;-74
2022/05/20 05:34:35;;;;;;;12.93;5.95;;;;;;;9.99;76.10;94240.72;5048073;28;20404;-73
2022/05/20 05:37:03;;;;;;;13.48;6.20;;;;;;;10.23;79.63;94249.88;5048244;28;20137;-73
2022/05/20 05:39:30;;;;;;;13.07;6.00;;;;;;;10.43;80.37;94236.50;5048562;28;20400;-73
2022/05/20 05:41:59;;;;;;;11.57;6.47;;;;;;;10.77;80.72;94239.34;5048121;28;20041;-74
2022/05/20 05:44:26;;;;;;;12.50;5.93;;;;;;;11.04;77.78;94237.78;5047990;28;20048;-73
2022/05/20 05:46:53;;;;;;;15.13;6.57;;;;;;;11.26;77.84;94213.78;5048051;28;20064;-74
2022/05/20 05:49:21;;;;;;;19.40;6.90;;;;;;;11.78;75.08;94240.00;5048289;28;20055;-74
2022/05/20 05:51:48;;;;;;;16.95;6.80;;;;;;;12.03;73.86;94227.41;5048077;28;20049;-74
2022/05/20 05:54:16;;;;;;;15.43;6.20;;;;;;;12.43;73.73;94238.84;5048346;28;20045;-74
2022/05/20 05:56:43;;;;;;;18.63;6.43;;;;;;;12.81;68.93;94243.47;5048073;28;20094;-74
2022/05/20 05:59:10;;;;;;;17.38;6.90;;;;;;;13.14;66.02;94239.28;5048262;28;20049;-74
2022/05/20 06:01:36;;;;;;;13.20;6.00;;;;;;;13.49;65.72;94231.34;5048151;28;20053;-74
2022/05/20 06:04:03;;;;;;;15.75;5.65;;;;;;;13.73;61.63;94236.03;5047789;28;20053;-74
2022/05/20 06:06:32;;;;;;;10.63;4.53;;;;;;;13.47;57.44;94241.06;5047898;28;20041;-74
2022/05/20 06:08:58;;;;;;;10.73;4.45;;;;;;;13.79;57.62;94235.22;5047887;28;20041;-74
2022/05/20 06:11:25;;;;;;;13.95;6.07;;;;;;;14.19;55.74;94226.50;5049677;28;20111;-74
2022/05/20 06:13:52;;;;;;;16.98;6.43;;;;;;;14.75;58.62;94236.34;5051831;28;20047;-74
2022/05/20 06:16:21;;;;;;;15.50;5.90;;;;;;;15.27;56.01;94228.34;5048786;28;20496;-74
2022/05/20 06:18:48;;;;;;;11.70;5.53;;;;;;;15.75;52.36;94228.69;5051363;28;20124;-74
2022/05/20 06:21:15;;;;;;;10.32;4.70;;;;;;;16.08;49.77;94232.72;5051682;28;20060;-74
2022/05/20 06:23:43;;;;;;;14.27;5.32;;;;;;;15.92;49.37;94226.28;5051701;28;20037;-74
2022/05/20 06:26:10;;;;;;;17.75;5.40;;;;;;;16.36;49.15;94235.75;5051276;28;20041;-74
2022/05/20 06:28:37;;;;;;;12.25;5.35;;;;;;;16.74;49.90;94228.63;5051554;28;20045;-72
2022/05/20 06:31:04;;;;;;;12.15;5.13;;;;;;;17.06;48.22;94233.56;5051389;28;20055;-71
2022/05/20 06:33:31;;;;;;;11.05;5.25;;;;;;;17.45;48.81;94220.91;5051526;28;20060;-71
2022/05/20 06:41:39;;;;;;;10.65;4.72;;;;;;;18.73;47.70;94216.78;4989356;28;20085;-72
2022/05/20 06:44:06;;;;;;;16.15;5.70;;;;;;;18.98;45.49;94202.59;5033629;28;20048;-72
2022/05/20 06:46:33;;;;;;;14.43;5.03;;;;;;;19.34;45.74;94209.13;5051173;28;20049;-72
2022/05/20 06:49:01;;;;;;;15.73;5.07;;;;;;;19.39;42.36;94192.78;5050815;28;20511;-72
2022/05/20 06:51:30;;;;;;;16.90;6.88;;;;;;;19.85;44.85;94212.63;5050998;28;20090;-72
2022/05/20 06:54:01;;;;;;;17.42;6.78;;;;;;;20.18;43.05;94205.72;5051103;28;20044;-74
2022/05/20 06:56:30;;;;;;;11.23;4.93;;;;;;;20.43;40.36;94213.00;5050710;28;20500;-74
2022/05/20 06:58:58;;;;;;;15.27;5.20;;;;;;;20.39;40.60;94211.16;5039843;28;20050;-73
2022/05/20 07:01:25;;;;;;;10.68;4.75;;;;;;;20.56;42.07;94198.00;5036268;28;20052;-73
2022/05/20 07:03:52;;;;;;;10.60;4.57;;;;;;;20.89;41.66;94211.09;5041700;28;20053;-73
2022/05/20 07:06:19;;;;;;;11.23;3.30;;;;;;;20.97;39.38;94205.41;5039769;28;20060;-74
2022/05/20 07:08:48;;;;;;;13.35;4.28;;;;;;;21.40;40.68;94202.00;5041054;28;20048;-74
2022/05/20 07:11:18;;;;;;;9.98;4.35;;;;;;;21.23;38.08;94195.13;5041634;28;20057;-74
2022/05/20 07:13:45;;;;;;;16.73;4.18;;;;;;;20.80;37.23;94200.28;5040400;28;20095;-75
2022/05/20 07:16:12;;;;;;;12.57;3.40;;;;;;;20.64;38.09;94204.59;5041278;28;20046;-74
2022/05/20 07:18:39;;;;;;;12.07;3.80;;;;;;;20.22;38.14;94203.44;5037963;28;20493;-74
2022/05/20 07:21:06;;;;;;;14.15;3.50;;;;;;;19.95;39.13;94198.94;5040550;28;20408;-74
2022/05/20 07:23:34;;;;;;;12.63;3.50;;;;;;;20.33;38.50;94204.31;5041442;28;20046;-74
2022/05/20 07:26:02;;;;;;;16.02;4.03;;;;;;;20.58;37.37;94208.97;5039711;28;20049;-74
2022/05/20 07:28:31;;;;;;;11.65;3.85;;;;;;;20.75;37.93;94208.06;5040333;28;20148;-74
2022/05/20 07:30:57;;;;;;;7.75;1.77;;;;;;;20.31;35.64;94217.59;5041573;28;20408;-74
2022/05/20 07:33:24;;;;;;;6.32;2.17;;;;;;;20.22;35.83;94209.41;5039495;28;20149;-74
2022/05/20 07:35:52;;;;;;;9.27;2.28;;;;;;;20.83;38.91;94203.19;5040301;28;20045;-74
2022/05/20 07:38:18;;;;;;;11.77;2.50;;;;;;;21.25;34.44;94200.91;5041290;28;20056;-74
2022/05/20 07:40:45;;;;;;;17.40;3.40;;;;;;;20.87;36.99;94207.94;5039413;28;20049;-75
2022/05/20 07:43:13;;;;;;;8.73;3.35;;;;;;;20.85;35.04;94204.75;5040035;28;20049;-74
2022/05/20 07:45:41;;;;;;;8.82;2.92;;;;;;;21.00;34.58;94206.72;5041733;28;20048;-74
2022/05/20 07:48:09;;;;;;;8.98;3.33;;;;;;;20.71;35.25;94194.72;5040086;28;20485;-75
2022/05/20 07:50:42;;;;;;;9.93;2.70;;;;;;;20.59;36.37;94188.91;5041728;28;20045;-74
2022/05/20 07:53:23;;;;;;;8.07;2.22;;;;;;;20.89;36.94;94183.16;5050361;28;20095;-74
2022/05/20 07:55:55;;;;;;;13.15;2.63;;;;;;;21.61;37.75;94187.19;5050324;28;20052;-74
2022/05/20 07:58:27;;;;;;;9.45;2.05;;;;;;;21.69;35.34;94193.78;5050233;28;20056;-75
2022/05/20 08:00:58;;;;;;;7.53;2.45;;;;;;;22.14;35.20;94192.38;5050184;28;20068;-74
2022/05/20 08:06:11;;;;;;;8.32;1.90;;;;;;;22.68;32.26;94192.25;5049991;28;20063;-74
2022/05/20 08:08:37;;;;;;;8.70;1.63;;;;;;;22.93;29.88;94190.66;5049827;28;20076;-74
2022/05/20 08:11:04;;;;;;;7.07;1.65;;;;;;;23.23;30.78;94187.22;5050190;28;20071;-74
2022/05/20 08:13:31;;;;;;;3.67;1.38;;;;;;;23.02;28.93;94186.47;5049763;28;20055;-75
2022/05/20 08:15:59;;;;;;;3.67;1.38;;;;;;;22.66;30.77;94181.22;5050017;28;20048;-74
2022/05/20 08:18:26;;;;;;;4.53;1.50;;;;;;;21.48;30.15;94178.00;5049561;28;20508;-74
2022/05/20 08:20:55;;;;;;;4.75;1.42;;;;;;;21.57;31.51;94179.09;5049992;28;20049;-74
2022/05/20 08:23:21;;;;;;;6.18;1.25;;;;;;;22.12;31.18;94175.41;5049949;28;20076;-74
2022/05/20 08:25:48;;;;;;;3.58;1.48;;;;;;;22.80;32.19;94176.25;5049668;28;20500;-74
2022/05/20 08:28:15;;;;;;;5.85;1.35;;;;;;;23.12;30.69;94177.81;5049919;28;20120;-75
2022/05/20 08:30:42;;;;;;;5.22;1.33;;;;;;;21.96;30.00;94177.97;5049554;28;20538;-74
2022/05/20 08:33:10;;;;;;;3.17;1.10;;;;;;;21.84;28.84;94185.25;5049039;28;20124;-75
2022/05/20 08:35:37;;;;;;;4.35;1.38;;;;;;;;;;5049456;28;20063;-75
2022/05/20 08:38:05;;;;;;;3.97;1.20;;;;;;;22.20;30.59;94174.88;5049662;28;20071;-75
2022/05/20 08:40:38;;;;;;;3.65;1.55;;;;;;;22.93;31.66;94160.03;5049444;28;20045;-75
2022/05/20 08:43:06;;;;;;;4.55;1.27;;;;;;;23.04;27.99;94170.47;5049397;28;20399;-75
2022/05/20 08:45:33;;;;;;;4.38;1.33;;;;;;;22.62;30.24;94157.41;5049231;28;20053;-75
2022/05/20 08:48:00;;;;;;;4.63;1.55;;;;;;;23.48;32.99;94148.88;5049228;28;20049;-75
2022/05/20 08:50:36;;;;;;;5.03;1.55;;;;;;;23.95;29.33;94119.03;5049410;28;20053;-75
2022/05/20 08:53:17;;;;;;;4.50;1.55;;;;;;;24.69;30.52;94141.94;5049287;28;20052;-74
2022/05/20 08:55:45;;;;;;;5.38;1.80;;;;;;;24.79;27.90;94141.84;5049394;28;20048;-75
2022/05/20 08:58:17;;;;;;;4.50;1.30;;;;;;;24.64;27.97;94139.34;5049473;28;20049;-75
2022/05/20 09:00:44;;;;;;;6.53;1.90;;;;;;;24.21;28.07;94134.69;5049011;28;20053;-75
2022/05/20 09:03:12;;;;;;;7.03;1.73;;;;;;;24.61;28.79;94135.44;5049252;28;20508;-75
2022/05/20 09:05:42;;;;;;;4.68;1.30;;;;;;;24.81;27.38;94133.69;5049399;28;20465;-76
2022/05/20 09:08:23;;;;;;;5.88;2.28;;;;;;;24.79;27.35;94120.03;5049180;28;20048;-75
2022/05/20 09:10:53;;;;;;;3.45;1.33;;;;;;;23.05;27.44;94109.94;5048990;28;20045;-76
2022/05/20 09:13:23;;;;;;;4.72;1.20;;;;;;;23.46;29.79;94118.75;5049345;28;20045;-76
2022/05/20 09:16:01;;;;;;;6.63;1.60;;;;;;;24.00;29.06;94122.44;5048857;28;20049;-76
2022/05/20 09:18:35;;;;;;;3.58;1.23;;;;;;;23.35;27.06;94110.94;5049119;28;20175;-75
2022/05/20 09:21:05;;;;;;;6.47;1.45;;;;;;;23.57;30.86;94109.81;5049171;28;20080;-75
2022/05/20 09:23:32;;;;;;;8.52;1.75;;;;;;;23.43;28.54;94104.38;5049026;28;20492;-76
2022/05/20 09:26:07;;;;;;;5.25;1.90;;;;;;;23.17;28.96;94090.50;5048776;28;20046;-76
2022/05/20 09:28:39;;;;;;;3.00;1.00;;;;;;;22.58;27.37;94101.38;5048734;28;20056;-76
2022/05/20 09:31:14;;;;;;;4.70;1.13;;;;;;;22.74;27.44;94109.22;5048931;28;20056;-76
2022/05/20 09:33:48;;;;;;;4.45;0.90;;;;;;;23.25;26.11;94091.81;5049139;28;20052;-76
2022/05/20 09:36:33;;;;;;;10.10;1.08;;;;;;;23.60;28.24;94090.09;5041465;28;20054;-76
2022/05/20 09:39:10;;;;;;;2.72;1.10;;;;;;;23.84;25.43;94079.75;5035215;28;20053;-76
2022/05/20 09:41:49;;;;;;;3.20;0.98;;;;;;;23.62;26.55;94075.66;5043867;28;20045;-76
2022/05/20 09:44:19;;;;;;;2.65;0.60;;;;;;;23.09;24.53;94084.78;5048140;28;20412;-76
2022/05/20 09:46:51;;;;;;;4.32;0.98;;;;;;;23.03;24.89;94077.19;5050087;28;20045;-76
2022/05/20 09:49:39;;;;;;;5.65;1.35;;;;;;;23.40;24.23;94080.50;5051928;28;20056;-76
2022/05/20 09:52:21;;;;;;;2.00;0.57;;;;;;;24.02;26.56;94074.91;5051874;28;20057;-76
2022/05/20 09:54:50;;;;;;;3.28;0.85;;;;;;;24.69;26.93;94071.78;5052660;28;20052;-77
2022/05/20 09:57:24;;;;;;;4.28;1.15;;;;;;;25.34;26.52;94067.19;5051978;28;20049;-77
2022/05/20 09:59:57;;;;;;;6.43;0.90;;;;;;;25.95;26.49;94065.88;5052572;28;20146;-77
2022/05/20 10:02:29;;;;;;;2.22;0.68;;;;;;;25.84;23.76;94068.69;5052297;28;20052;-77
2022/05/20 10:05:11;;;;;;;3.80;1.02;;;;;;;26.00;22.32;94050.81;5043348;28;20049;-76
2022/05/20 10:07:56;;;;;;;4.68;1.05;;;;;;;25.20;23.45;94061.84;5030780;28;20053;-77
2022/05/20 10:10:33;;;;;;;3.10;1.10;;;;;;;25.56;24.61;94055.38;5031838;28;20813;-76
2022/05/20 10:13:03;;;;;;;1.98;0.70;;;;;;;24.54;26.63;94056.94;5046601;28;20060;-76
2022/05/20 10:15:36;;;;;;;1.40;0.68;;;;;;;23.70;25.00;94044.69;5051819;28;20056;-76
2022/05/20 10:18:14;;;;;;;2.55;0.95;;;;;;;23.64;25.34;94059.66;5051400;28;20057;-77
2022/05/20 10:20:51;;;;;;;3.72;0.88;;;;;;;24.21;26.37;94034.94;5051834;28;20049;-76
2022/05/20 10:23:26;;;;;;;2.00;0.80;;;;;;;25.05;26.17;94035.72;5051919;28;20076;-76
2022/05/20 10:25:57;;;;;;;;;;;;;;;25.83;25.75;94045.28;5052648;28;20048;-76
2022/05/20 10:34:11;;;;;;;4.78;1.02;;;;;;;27.40;25.01;94018.59;5031886;28;20052;-77
2022/05/20 10:36:52;;;;;;;4.32;0.80;;;;;;;27.65;24.70;94018.38;5046012;28;20056;-78
2022/05/20 10:39:51;;;;;;;2.70;0.80;;;;;;;27.80;23.51;94019.88;5051539;28;20132;-77
2022/05/20 10:42:38;;;;;;;3.17;0.98;;;;;;;26.57;22.65;94014.91;5051784;28;20045;-77
2022/05/20 10:48:39;;;;;;;4.32;0.75;;;;;;;27.99;24.24;94009.13;5051410;28;20134;-77
2022/05/20 10:51:17;;;;;;;2.58;1.00;;;;;;;28.38;23.12;94012.97;5038492;28;20511;-77
2022/05/20 10:53:53;;;;;;;2.78;1.17;;;;;;;28.72;25.42;94010.81;5051211;28;20143;-76
2022/05/20 10:56:40;;;;;;;;;;;;;;;28.95;24.89;94002.81;5051502;28;20041;-77
2022/05/20 10:59:37;;;;;;;2.95;0.80;;;;;;;29.05;24.32;93999.91;5050556;28;19978;-76
2022/05/20 11:02:30;;;;;;;1.67;0.60;;;;;;;28.94;23.08;93996.75;5049661;28;20056;-76
2022/05/20 11:05:24;;;;;;;4.13;0.85;;;;;;;28.80;22.42;93972.28;5051334;28;20454;-77
2022/05/20 11:08:07;;;;;;;4.43;1.02;;;;;;;29.06;24.44;93985.59;5051038;28;20049;-77
2022/05/20 11:11:00;;;;;;;6.63;1.00;;;;;;;29.20;24.19;93979.38;5051073;28;20060;-77
2022/05/20 11:13:43;;;;;;;4.45;1.15;;;;;;;29.50;23.92;93976.16;5051498;28;20068;-77
2022/05/20 11:16:24;;;;;;;4.38;1.33;;;;;;;29.53;23.70;93951.72;5050801;28;20140;-78
2022/05/20 11:19:14;;;;;;;2.30;0.90;;;;;;;29.55;23.75;93974.16;5050464;28;20060;-77
2022/05/20 11:21:58;;;;;;;2.53;1.02;;;;;;;29.19;22.80;93975.19;5051158;28;20041;-78
2022/05/20 11:24:41;;;;;;;3.72;1.20;;;;;;;28.15;25.54;93975.25;5050750;28;20052;-77
2022/05/20 11:27:22;;;;;;;2.70;0.70;;;;;;;28.12;25.42;93962.63;5050823;28;20051;-78
2022/05/20 11:30:06;;;;;;;2.65;0.70;;;;;;;26.91;23.73;93971.56;5050685;28;20056;-76
2022/05/20 11:32:50;;;;;;;3.15;0.60;;;;;;;26.61;25.33;93963.16;5050520;28;20049;-77
2022/05/20 11:35:27;;;;;;;2.97;0.95;;;;;;;26.27;24.78;93965.09;5050781;28;20393;-77
2022/05/20 11:38:14;;;;;;;2.00;0.73;;;;;;;25.57;27.12;93956.97;5050165;28;20052;-77
2022/05/20 11:40:50;;;;;;;5.53;0.88;;;;;;;25.84;27.81;93955.53;5047545;28;20136;-77
2022/05/20 11:43:46;;;;;;;1.45;0.50;;;;;;;26.15;25.59;93952.38;5050557;28;20063;-77
2022/05/20 11:46:27;;;;;;;2.08;0.90;;;;;;;25.99;24.52;93951.06;5050738;28;20447;-76
2022/05/20 11:49:18;;;;;;;1.40;0.40;;;;;;;26.06;23.03;93937.53;5050634;28;20053;-76
2022/05/20 11:52:18;;;;;;;4.70;0.75;;;;;;;25.22;24.51;93948.47;5048871;28;20045;-76
2022/05/20 11:54:50;;;;;;;1.73;0.60;;;;;;;24.80;24.78;93933.22;5050217;28;20534;-76
2022/05/20 11:57:22;;;;;;;2.08;0.60;;;;;;;25.54;24.34;93943.63;5049518;28;20526;-77
2022/05/20 11:59:55;;;;;;;2.15;0.70;;;;;;;26.23;25.42;93948.31;5050166;28;20445;-76
2022/05/20 12:02:27;;;;;;;2.53;0.60;;;;;;;26.83;23.50;93931.94;5050396;28;20053;-76
2022/05/20 12:04:55;;;;;;;1.70;0.40;;;;;;;27.31;22.68;93928.06;5050503;28;20057;-76
2022/05/20 12:07:24;;;;;;;1.50;0.60;;;;;;;27.71;21.81;93933.50;5050379;28;20053;-76
2022/05/20 12:09:53;;;;;;;2.67;0.73;;;;;;;27.02;21.41;93926.56;5049614;28;20056;-76
2022/05/20 12:12:27;;;;;;;1.73;0.43;;;;;;;27.65;24.12;93910.94;5050183;28;20044;-76
2022/05/20 12:15:41;;;;;;;4.78;0.95;;;;;;;26.10;22.07;93915.59;5050229;28;20055;-76
2022/05/20 12:24:30;;;;;;;3.33;0.70;;;;;;;26.84;23.38;93907.91;5049782;28;20071;-78
2022/05/20 12:26:58;;;;;;;1.77;0.50;;;;;;;25.29;21.17;93916.59;5034043;28;20416;-77
2022/05/20 12:30:01;;;;;;;4.60;1.45;;;;;;;24.99;22.31;93882.53;5045374;28;20080;-77